This is the latest recevied weather packets stored in our database for station/object WA4OPQ-1. If no packets are shown the sender has not sent any weather packets the latest 10 day(s).
| Time | Temp. | Humidity | Pressure | Rain* | Wind** | Luminosity | Snow |
|---|---|---|---|---|---|---|---|
| 1787939738 | 30.56° C | 63% | 1015.2 hPa | 0 mm | 0 m/s | 693 W/m² | - |
| 1787939213 | 30° C | 60% | 1015.3 hPa | 0 mm | 0 m/s | 723 W/m² | - |
| 1787938668 | 30° C | 67% | 1015.7 hPa | 0 mm | 0 m/s | 709 W/m² | - |
| 1787938103 | 30° C | 65% | 1015.6 hPa | 0 mm | 0 m/s | 710 W/m² | - |
| 1787937513 | 30° C | 61% | 1015.8 hPa | 0 mm | 0 m/s | 685 W/m² | - |
| 1787936993 | 30° C | 62% | 1015.6 hPa | 0 mm | 0.45 m/s, 350° | 705 W/m² | - |
| 1787936498 | 28.89° C | 68% | 1015.7 hPa | 0 mm | 0 m/s | 722 W/m² | - |
| 1787935943 | 28.33° C | 73% | 1015.9 hPa | 0 mm | 0 m/s | 145 W/m² | - |
| 1787935438 | 29.44° C | 70% | 1015.7 hPa | 0 mm | 0 m/s | 686 W/m² | - |
| 1787934958 | 29.44° C | 69% | 1015.6 hPa | 0 mm | 0.45 m/s, 317° | 124 W/m² | - |
| 1787934423 | 29.44° C | 68% | 1015.5 hPa | 0 mm | 0.45 m/s, 329° | 652 W/m² | - |
| 1787933908 | 28.89° C | 68% | 1015.8 hPa | 0 mm | 0 m/s | 645 W/m² | - |
| 1787933313 | 28.33° C | 69% | 1016 hPa | 0 mm | 0 m/s | 671 W/m² | - |
| 1787932726 | 28.89° C | 72% | 1015.7 hPa | 0 mm | 0.45 m/s, 326° | 704 W/m² | - |
| 1787932238 | 28.89° C | 69% | 1015.7 hPa | 0 mm | 0.45 m/s, 325° | 697 W/m² | - |
| 1787931688 | 27.78° C | 76% | 1016 hPa | 0 mm | 0.45 m/s, 334° | 696 W/m² | - |
| 1787931193 | 27.78° C | 72% | 1015.9 hPa | 0 mm | 0 m/s | 713 W/m² | - |
| 1787930686 | 27.78° C | 78% | 1015.8 hPa | 0 mm | 0 m/s | 752 W/m² | - |
| 1787930178 | 26.67° C | 76% | 1016.1 hPa | 0 mm | 0 m/s | 622 W/m² | - |
| 1787929655 | 26.11° C | 79% | 1016.2 hPa | 0 mm | 0 m/s | 390 W/m² | - |
| 1787929143 | 26.11° C | 79% | 1016 hPa | 0 mm | 0 m/s | 136 W/m² | - |
| 1787928578 | 25.56° C | 82% | 1016 hPa | 0 mm | 0 m/s | 127 W/m² | - |
| 1787928003 | 25° C | 81% | 1016.1 hPa | 0 mm | 0 m/s | 158 W/m² | - |
| 1787927458 | 25° C | 83% | 1015.9 hPa | 0 mm | 0 m/s | 266 W/m² | - |
| 1787926918 | 24.44° C | 85% | 1016.1 hPa | 0 mm | 0.45 m/s, 326° | 334 W/m² | - |
* Rain latest hour (hover to see other rain measurements)
** Current wind speed in m/s (hover to see current wind gust speed)